Terminal Aerodrome Forecast
Issued by NWS Paducah, KY

Home | Current Version | Previous Version | Graphics & Text | Print | Product List | Glossary On
Versions: 1 2 3 4 5 6 7 8 9 10 11 12 13 14 15 16 17 18
567
FTUS43 KPAH 120520
TAFEVV
TAF
KEVV 120520Z 1206/1306 02003KT P6SM BKN060 OVC100
     FM121015 33002KT P6SM -SN BKN015 OVC040
     FM121600 30006KT P6SM BKN015 OVC030
      TEMPO 1221/1223 -SN
     FM130000 34012KT P6SM OVC022=

USA.gov is the U.S. government's official web portal to all federal, state and local government web resources and services.